sensor_id;sensor_type;location;lat;lon;timestamp;temperature;humidity
19168;DHT22;9716;53.114;18.040;2023-10-31T00:00:05;10.90;99.90
19168;DHT22;9716;53.114;18.040;2023-10-31T00:02:57;10.90;99.90
19168;DHT22;9716;53.114;18.040;2023-10-31T00:05:25;10.90;99.90
19168;DHT22;9716;53.114;18.040;2023-10-31T00:07:54;10.90;99.90
19168;DHT22;9716;53.114;18.040;2023-10-31T00:10:22;11.00;99.90
19168;DHT22;9716;53.114;18.040;2023-10-31T00:12:51;11.00;99.90
19168;DHT22;9716;53.114;18.040;2023-10-31T00:15:19;11.10;99.90
19168;DHT22;9716;53.114;18.040;2023-10-31T00:17:48;11.10;99.90
19168;DHT22;9716;53.114;18.040;2023-10-31T00:20:18;11.10;99.90
19168;DHT22;9716;53.114;18.040;2023-10-31T00:22:47;11.20;99.90
19168;DHT22;9716;53.114;18.040;2023-10-31T00:25:15;11.20;99.90
19168;DHT22;9716;53.114;18.040;2023-10-31T00:27:46;11.30;99.90
19168;DHT22;9716;53.114;18.040;2023-10-31T00:30:14;11.30;99.90
19168;DHT22;9716;53.114;18.040;2023-10-31T00:32:43;11.30;99.90
19168;DHT22;9716;53.114;18.040;2023-10-31T00:35:11;11.30;99.90
19168;DHT22;9716;53.114;18.040;2023-10-31T00:37:41;11.40;99.90
19168;DHT22;9716;53.114;18.040;2023-10-31T00:40:10;11.40;99.90
19168;DHT22;9716;53.114;18.040;2023-10-31T00:42:41;11.40;99.90
19168;DHT22;9716;53.114;18.040;2023-10-31T00:45:10;11.40;99.90
19168;DHT22;9716;53.114;18.040;2023-10-31T00:47:38;11.40;99.90
19168;DHT22;9716;53.114;18.040;2023-10-31T00:50:07;11.40;99.90
19168;DHT22;9716;53.114;18.040;2023-10-31T00:52:36;11.40;99.90
19168;DHT22;9716;53.114;18.040;2023-10-31T00:55:06;11.40;99.90
19168;DHT22;9716;53.114;18.040;2023-10-31T00:57:35;11.40;99.90
19168;DHT22;9716;53.114;18.040;2023-10-31T01:00:04;11.50;99.90
19168;DHT22;9716;53.114;18.040;2023-10-31T01:02:33;11.50;99.90
19168;DHT22;9716;53.114;18.040;2023-10-31T01:05:01;11.50;99.90
19168;DHT22;9716;53.114;18.040;2023-10-31T01:07:30;11.50;99.90
19168;DHT22;9716;53.114;18.040;2023-10-31T01:09:58;11.50;99.90
19168;DHT22;9716;53.114;18.040;2023-10-31T01:12:28;11.60;99.90
19168;DHT22;9716;53.114;18.040;2023-10-31T01:14:58;11.50;99.90
19168;DHT22;9716;53.114;18.040;2023-10-31T01:17:26;11.50;99.90
19168;DHT22;9716;53.114;18.040;2023-10-31T01:19:54;11.60;99.90
19168;DHT22;9716;53.114;18.040;2023-10-31T01:22:23;11.60;99.90
19168;DHT22;9716;53.114;18.040;2023-10-31T01:24:52;11.60;99.90
19168;DHT22;9716;53.114;18.040;2023-10-31T01:27:21;11.60;99.90
19168;DHT22;9716;53.114;18.040;2023-10-31T01:29:50;11.60;99.90
19168;DHT22;9716;53.114;18.040;2023-10-31T01:32:19;11.60;99.90
19168;DHT22;9716;53.114;18.040;2023-10-31T01:34:49;11.60;99.90
19168;DHT22;9716;53.114;18.040;2023-10-31T01:37:17;11.60;99.90
19168;DHT22;9716;53.114;18.040;2023-10-31T01:39:47;11.60;99.90
19168;DHT22;9716;53.114;18.040;2023-10-31T01:42:17;11.60;99.90
19168;DHT22;9716;53.114;18.040;2023-10-31T01:44:45;11.60;99.90
19168;DHT22;9716;53.114;18.040;2023-10-31T01:47:15;11.60;99.90
19168;DHT22;9716;53.114;18.040;2023-10-31T01:49:44;11.60;99.90
19168;DHT22;9716;53.114;18.040;2023-10-31T01:52:12;11.60;99.90
19168;DHT22;9716;53.114;18.040;2023-10-31T01:54:41;11.70;99.90
19168;DHT22;9716;53.114;18.040;2023-10-31T01:57:09;11.70;99.90
19168;DHT22;9716;53.114;18.040;2023-10-31T01:59:39;11.70;99.90
19168;DHT22;9716;53.114;18.040;2023-10-31T02:02:08;11.70;99.90
19168;DHT22;9716;53.114;18.040;2023-10-31T02:04:38;11.70;99.90
19168;DHT22;9716;53.114;18.040;2023-10-31T02:07:06;11.70;99.90
19168;DHT22;9716;53.114;18.040;2023-10-31T02:09:35;11.70;99.90
19168;DHT22;9716;53.114;18.040;2023-10-31T02:12:04;11.70;99.90
19168;DHT22;9716;53.114;18.040;2023-10-31T02:14:32;11.70;99.90
19168;DHT22;9716;53.114;18.040;2023-10-31T02:17:00;11.70;99.90
19168;DHT22;9716;53.114;18.040;2023-10-31T02:19:29;11.70;99.90
19168;DHT22;9716;53.114;18.040;2023-10-31T02:21:58;11.70;99.90
19168;DHT22;9716;53.114;18.040;2023-10-31T02:24:29;11.70;99.90
19168;DHT22;9716;53.114;18.040;2023-10-31T02:26:58;11.70;99.90
19168;DHT22;9716;53.114;18.040;2023-10-31T02:29:26;11.70;99.90
19168;DHT22;9716;53.114;18.040;2023-10-31T02:31:55;11.70;99.90
19168;DHT22;9716;53.114;18.040;2023-10-31T02:34:23;11.70;99.90
19168;DHT22;9716;53.114;18.040;2023-10-31T02:36:53;11.70;99.90
19168;DHT22;9716;53.114;18.040;2023-10-31T02:39:23;11.80;99.90
19168;DHT22;9716;53.114;18.040;2023-10-31T02:41:51;11.80;99.90
19168;DHT22;9716;53.114;18.040;2023-10-31T02:44:20;11.80;99.90
19168;DHT22;9716;53.114;18.040;2023-10-31T02:46:48;11.80;99.90
19168;DHT22;9716;53.114;18.040;2023-10-31T02:49:17;11.90;99.90
19168;DHT22;9716;53.114;18.040;2023-10-31T02:51:45;11.80;99.90
19168;DHT22;9716;53.114;18.040;2023-10-31T02:54:13;11.90;99.90
19168;DHT22;9716;53.114;18.040;2023-10-31T02:56:43;11.90;99.90
19168;DHT22;9716;53.114;18.040;2023-10-31T02:59:12;12.00;99.90
19168;DHT22;9716;53.114;18.040;2023-10-31T03:01:40;12.00;99.90
19168;DHT22;9716;53.114;18.040;2023-10-31T03:04:09;12.00;99.90
19168;DHT22;9716;53.114;18.040;2023-10-31T03:06:37;12.10;99.90
19168;DHT22;9716;53.114;18.040;2023-10-31T03:09:06;12.10;99.90
19168;DHT22;9716;53.114;18.040;2023-10-31T03:11:35;12.20;99.90
19168;DHT22;9716;53.114;18.040;2023-10-31T03:14:04;12.20;99.90
19168;DHT22;9716;53.114;18.040;2023-10-31T03:16:33;12.20;99.90
19168;DHT22;9716;53.114;18.040;2023-10-31T03:19:01;12.20;99.90
19168;DHT22;9716;53.114;18.040;2023-10-31T03:21:30;12.20;99.90
19168;DHT22;9716;53.114;18.040;2023-10-31T03:23:58;12.30;99.90
19168;DHT22;9716;53.114;18.040;2023-10-31T03:26:27;12.30;99.90
19168;DHT22;9716;53.114;18.040;2023-10-31T03:28:55;12.40;99.90
19168;DHT22;9716;53.114;18.040;2023-10-31T03:31:26;12.40;99.90
19168;DHT22;9716;53.114;18.040;2023-10-31T03:33:54;12.40;99.90
19168;DHT22;9716;53.114;18.040;2023-10-31T03:36:23;12.50;99.90
19168;DHT22;9716;53.114;18.040;2023-10-31T03:38:51;12.50;99.90
19168;DHT22;9716;53.114;18.040;2023-10-31T03:41:20;12.60;99.90
19168;DHT22;9716;53.114;18.040;2023-10-31T03:43:48;12.60;99.90
19168;DHT22;9716;53.114;18.040;2023-10-31T03:46:17;12.70;99.90
19168;DHT22;9716;53.114;18.040;2023-10-31T03:48:46;12.80;99.90
19168;DHT22;9716;53.114;18.040;2023-10-31T03:51:15;12.80;99.90
19168;DHT22;9716;53.114;18.040;2023-10-31T03:53:43;12.90;99.90
19168;DHT22;9716;53.114;18.040;2023-10-31T03:56:12;12.90;99.90
19168;DHT22;9716;53.114;18.040;2023-10-31T03:58:42;13.00;99.90
19168;DHT22;9716;53.114;18.040;2023-10-31T04:01:11;13.00;99.90
19168;DHT22;9716;53.114;18.040;2023-10-31T04:03:39;13.10;99.90
19168;DHT22;9716;53.114;18.040;2023-10-31T04:06:09;13.10;99.90
19168;DHT22;9716;53.114;18.040;2023-10-31T04:08:37;13.20;99.90
19168;DHT22;9716;53.114;18.040;2023-10-31T04:11:06;13.20;99.90
19168;DHT22;9716;53.114;18.040;2023-10-31T04:13:34;13.20;99.90
19168;DHT22;9716;53.114;18.040;2023-10-31T04:16:03;13.20;99.90
19168;DHT22;9716;53.114;18.040;2023-10-31T04:18:32;13.30;99.90
19168;DHT22;9716;53.114;18.040;2023-10-31T04:21:00;13.30;99.90
19168;DHT22;9716;53.114;18.040;2023-10-31T04:23:30;13.30;99.90
19168;DHT22;9716;53.114;18.040;2023-10-31T04:25:58;13.30;99.90
19168;DHT22;9716;53.114;18.040;2023-10-31T04:28:27;13.30;99.90
19168;DHT22;9716;53.114;18.040;2023-10-31T04:30:56;13.30;99.90
19168;DHT22;9716;53.114;18.040;2023-10-31T04:33:24;13.30;99.90
19168;DHT22;9716;53.114;18.040;2023-10-31T04:35:53;13.30;99.90
19168;DHT22;9716;53.114;18.040;2023-10-31T04:38:21;13.40;99.90
19168;DHT22;9716;53.114;18.040;2023-10-31T04:40:51;13.40;99.90
19168;DHT22;9716;53.114;18.040;2023-10-31T04:43:19;13.40;99.90
19168;DHT22;9716;53.114;18.040;2023-10-31T04:45:48;13.40;99.90
19168;DHT22;9716;53.114;18.040;2023-10-31T04:48:16;13.50;99.90
19168;DHT22;9716;53.114;18.040;2023-10-31T04:50:45;13.40;99.90
19168;DHT22;9716;53.114;18.040;2023-10-31T04:53:13;13.40;99.90
19168;DHT22;9716;53.114;18.040;2023-10-31T04:55:42;13.40;99.90
19168;DHT22;9716;53.114;18.040;2023-10-31T04:58:11;13.50;99.90
19168;DHT22;9716;53.114;18.040;2023-10-31T05:00:40;13.50;99.90
19168;DHT22;9716;53.114;18.040;2023-10-31T05:03:08;13.50;99.90
19168;DHT22;9716;53.114;18.040;2023-10-31T05:05:37;13.50;99.90
19168;DHT22;9716;53.114;18.040;2023-10-31T05:08:06;13.50;99.90
19168;DHT22;9716;53.114;18.040;2023-10-31T05:10:35;13.50;99.90
19168;DHT22;9716;53.114;18.040;2023-10-31T05:13:03;13.50;99.90
19168;DHT22;9716;53.114;18.040;2023-10-31T05:15:34;13.50;99.90
19168;DHT22;9716;53.114;18.040;2023-10-31T05:18:02;13.50;99.90
19168;DHT22;9716;53.114;18.040;2023-10-31T05:20:31;13.50;99.90
19168;DHT22;9716;53.114;18.040;2023-10-31T05:22:59;13.50;99.90
19168;DHT22;9716;53.114;18.040;2023-10-31T05:25:28;13.50;99.90
19168;DHT22;9716;53.114;18.040;2023-10-31T05:27:56;13.50;99.90
19168;DHT22;9716;53.114;18.040;2023-10-31T05:30:25;13.60;99.90
19168;DHT22;9716;53.114;18.040;2023-10-31T05:32:56;13.60;99.90
19168;DHT22;9716;53.114;18.040;2023-10-31T05:35:24;13.60;99.90
19168;DHT22;9716;53.114;18.040;2023-10-31T05:37:53;13.60;99.90
19168;DHT22;9716;53.114;18.040;2023-10-31T05:40:22;13.60;99.90
19168;DHT22;9716;53.114;18.040;2023-10-31T05:42:52;13.60;99.90
19168;DHT22;9716;53.114;18.040;2023-10-31T05:45:20;13.60;99.90
19168;DHT22;9716;53.114;18.040;2023-10-31T05:47:49;13.60;99.90
19168;DHT22;9716;53.114;18.040;2023-10-31T05:50:19;13.60;99.90
19168;DHT22;9716;53.114;18.040;2023-10-31T05:52:48;13.70;99.90
19168;DHT22;9716;53.114;18.040;2023-10-31T05:55:17;13.60;99.90
19168;DHT22;9716;53.114;18.040;2023-10-31T05:57:45;13.70;99.90
19168;DHT22;9716;53.114;18.040;2023-10-31T06:00:14;13.70;99.90
19168;DHT22;9716;53.114;18.040;2023-10-31T06:02:43;13.70;99.90
19168;DHT22;9716;53.114;18.040;2023-10-31T06:05:11;13.70;99.90
19168;DHT22;9716;53.114;18.040;2023-10-31T06:07:41;13.70;99.90
19168;DHT22;9716;53.114;18.040;2023-10-31T06:10:11;13.80;99.90
19168;DHT22;9716;53.114;18.040;2023-10-31T06:12:39;13.80;99.90
19168;DHT22;9716;53.114;18.040;2023-10-31T06:15:08;13.90;99.90
19168;DHT22;9716;53.114;18.040;2023-10-31T06:17:37;13.90;99.90
19168;DHT22;9716;53.114;18.040;2023-10-31T06:20:07;13.90;99.90
19168;DHT22;9716;53.114;18.040;2023-10-31T06:22:36;14.00;99.90
19168;DHT22;9716;53.114;18.040;2023-10-31T06:25:06;14.00;99.90
19168;DHT22;9716;53.114;18.040;2023-10-31T06:27:35;14.00;99.90
19168;DHT22;9716;53.114;18.040;2023-10-31T06:30:04;14.10;99.90
19168;DHT22;9716;53.114;18.040;2023-10-31T06:32:49;14.10;99.90
19168;DHT22;9716;53.114;18.040;2023-10-31T06:35:18;14.10;99.90
19168;DHT22;9716;53.114;18.040;2023-10-31T06:37:46;14.20;99.90
19168;DHT22;9716;53.114;18.040;2023-10-31T06:40:17;14.10;99.90
19168;DHT22;9716;53.114;18.040;2023-10-31T06:42:45;14.10;99.90
19168;DHT22;9716;53.114;18.040;2023-10-31T06:45:13;14.20;99.90
19168;DHT22;9716;53.114;18.040;2023-10-31T06:47:42;14.20;99.90
19168;DHT22;9716;53.114;18.040;2023-10-31T06:50:10;14.20;99.90
19168;DHT22;9716;53.114;18.040;2023-10-31T06:52:39;14.20;99.90
19168;DHT22;9716;53.114;18.040;2023-10-31T06:55:08;14.20;99.90
19168;DHT22;9716;53.114;18.040;2023-10-31T06:57:38;14.20;99.90
19168;DHT22;9716;53.114;18.040;2023-10-31T07:00:07;14.20;99.90
19168;DHT22;9716;53.114;18.040;2023-10-31T07:02:36;14.20;99.90
19168;DHT22;9716;53.114;18.040;2023-10-31T07:05:06;14.30;99.90
19168;DHT22;9716;53.114;18.040;2023-10-31T07:07:35;14.30;99.90
19168;DHT22;9716;53.114;18.040;2023-10-31T07:10:04;14.20;99.90
19168;DHT22;9716;53.114;18.040;2023-10-31T07:12:33;14.30;99.90
19168;DHT22;9716;53.114;18.040;2023-10-31T07:15:03;14.30;99.90
19168;DHT22;9716;53.114;18.040;2023-10-31T07:17:31;14.30;99.90
19168;DHT22;9716;53.114;18.040;2023-10-31T07:20:00;14.30;99.90
19168;DHT22;9716;53.114;18.040;2023-10-31T07:22:29;14.40;99.90
19168;DHT22;9716;53.114;18.040;2023-10-31T07:24:57;14.40;99.90
19168;DHT22;9716;53.114;18.040;2023-10-31T07:27:27;14.40;99.90
19168;DHT22;9716;53.114;18.040;2023-10-31T07:29:55;14.50;99.90
19168;DHT22;9716;53.114;18.040;2023-10-31T07:32:25;14.50;99.90
19168;DHT22;9716;53.114;18.040;2023-10-31T07:34:54;14.50;99.90
19168;DHT22;9716;53.114;18.040;2023-10-31T07:37:22;14.50;99.90
19168;DHT22;9716;53.114;18.040;2023-10-31T07:39:51;14.50;99.90
19168;DHT22;9716;53.114;18.040;2023-10-31T07:42:19;14.50;99.90
19168;DHT22;9716;53.114;18.040;2023-10-31T07:44:48;14.50;99.90
19168;DHT22;9716;53.114;18.040;2023-10-31T07:47:17;14.50;99.90
19168;DHT22;9716;53.114;18.040;2023-10-31T07:49:47;14.50;99.90
19168;DHT22;9716;53.114;18.040;2023-10-31T07:52:16;14.50;99.90
19168;DHT22;9716;53.114;18.040;2023-10-31T07:54:44;14.50;99.90
19168;DHT22;9716;53.114;18.040;2023-10-31T07:57:13;14.50;99.90
19168;DHT22;9716;53.114;18.040;2023-10-31T07:59:41;14.40;99.90
19168;DHT22;9716;53.114;18.040;2023-10-31T08:02:10;14.40;99.90
19168;DHT22;9716;53.114;18.040;2023-10-31T08:04:39;14.40;99.90
19168;DHT22;9716;53.114;18.040;2023-10-31T08:07:08;14.40;99.90
19168;DHT22;9716;53.114;18.040;2023-10-31T08:09:37;14.40;99.90
19168;DHT22;9716;53.114;18.040;2023-10-31T08:12:06;14.30;99.90
19168;DHT22;9716;53.114;18.040;2023-10-31T08:14:35;14.30;99.90
19168;DHT22;9716;53.114;18.040;2023-10-31T08:17:03;14.30;99.90
19168;DHT22;9716;53.114;18.040;2023-10-31T08:19:32;14.30;99.90
19168;DHT22;9716;53.114;18.040;2023-10-31T08:22:01;14.20;99.90
19168;DHT22;9716;53.114;18.040;2023-10-31T08:24:31;14.20;99.90
19168;DHT22;9716;53.114;18.040;2023-10-31T08:27:01;14.20;99.90
19168;DHT22;9716;53.114;18.040;2023-10-31T08:29:30;14.20;99.90
19168;DHT22;9716;53.114;18.040;2023-10-31T08:31:58;14.20;99.90
19168;DHT22;9716;53.114;18.040;2023-10-31T08:34:27;14.20;99.90
19168;DHT22;9716;53.114;18.040;2023-10-31T08:36:55;14.20;99.90
19168;DHT22;9716;53.114;18.040;2023-10-31T08:39:26;14.20;99.90
19168;DHT22;9716;53.114;18.040;2023-10-31T08:41:57;14.20;99.90
19168;DHT22;9716;53.114;18.040;2023-10-31T08:44:26;14.20;99.90
19168;DHT22;9716;53.114;18.040;2023-10-31T08:46:55;14.20;99.90
19168;DHT22;9716;53.114;18.040;2023-10-31T08:49:23;14.20;99.90
19168;DHT22;9716;53.114;18.040;2023-10-31T08:51:52;14.20;99.90
19168;DHT22;9716;53.114;18.040;2023-10-31T08:54:21;14.20;99.90
19168;DHT22;9716;53.114;18.040;2023-10-31T08:56:49;14.20;99.90
19168;DHT22;9716;53.114;18.040;2023-10-31T08:59:19;14.30;99.90
19168;DHT22;9716;53.114;18.040;2023-10-31T09:01:47;14.20;99.90
19168;DHT22;9716;53.114;18.040;2023-10-31T09:04:17;14.30;99.90
19168;DHT22;9716;53.114;18.040;2023-10-31T09:06:45;14.30;99.90
19168;DHT22;9716;53.114;18.040;2023-10-31T09:09:14;14.30;99.90
19168;DHT22;9716;53.114;18.040;2023-10-31T09:11:42;14.40;99.90
19168;DHT22;9716;53.114;18.040;2023-10-31T09:14:11;14.40;99.90
19168;DHT22;9716;53.114;18.040;2023-10-31T09:16:41;14.50;99.90
19168;DHT22;9716;53.114;18.040;2023-10-31T09:19:09;14.50;99.90
19168;DHT22;9716;53.114;18.040;2023-10-31T09:21:37;14.50;99.90
19168;DHT22;9716;53.114;18.040;2023-10-31T09:24:08;14.50;99.90
19168;DHT22;9716;53.114;18.040;2023-10-31T09:26:36;14.50;99.90
19168;DHT22;9716;53.114;18.040;2023-10-31T09:29:05;14.50;99.90
19168;DHT22;9716;53.114;18.040;2023-10-31T09:31:43;14.60;99.90
19168;DHT22;9716;53.114;18.040;2023-10-31T09:34:12;14.60;99.90
19168;DHT22;9716;53.114;18.040;2023-10-31T09:36:45;14.60;99.90
19168;DHT22;9716;53.114;18.040;2023-10-31T09:39:13;14.70;99.90
19168;DHT22;9716;53.114;18.040;2023-10-31T09:41:42;14.70;99.90
19168;DHT22;9716;53.114;18.040;2023-10-31T09:44:10;14.80;99.90
19168;DHT22;9716;53.114;18.040;2023-10-31T09:46:39;14.80;99.90
19168;DHT22;9716;53.114;18.040;2023-10-31T09:49:10;14.80;99.90
19168;DHT22;9716;53.114;18.040;2023-10-31T09:51:39;14.90;99.90
19168;DHT22;9716;53.114;18.040;2023-10-31T09:54:08;14.90;99.90
19168;DHT22;9716;53.114;18.040;2023-10-31T09:56:37;14.90;99.90
19168;DHT22;9716;53.114;18.040;2023-10-31T09:59:05;14.90;99.90
19168;DHT22;9716;53.114;18.040;2023-10-31T10:01:34;14.90;99.90
19168;DHT22;9716;53.114;18.040;2023-10-31T10:04:03;14.90;99.90
19168;DHT22;9716;53.114;18.040;2023-10-31T10:06:33;14.90;99.90
19168;DHT22;9716;53.114;18.040;2023-10-31T10:09:02;14.90;99.90
19168;DHT22;9716;53.114;18.040;2023-10-31T10:11:34;14.90;99.90
19168;DHT22;9716;53.114;18.040;2023-10-31T10:14:02;14.90;99.90
19168;DHT22;9716;53.114;18.040;2023-10-31T10:16:36;15.00;99.90
19168;DHT22;9716;53.114;18.040;2023-10-31T10:19:16;15.00;99.90
19168;DHT22;9716;53.114;18.040;2023-10-31T10:21:49;15.10;99.90
19168;DHT22;9716;53.114;18.040;2023-10-31T10:24:19;15.10;99.90
19168;DHT22;9716;53.114;18.040;2023-10-31T10:26:48;15.10;99.90
19168;DHT22;9716;53.114;18.040;2023-10-31T10:29:18;15.20;99.90
19168;DHT22;9716;53.114;18.040;2023-10-31T10:31:46;15.20;99.90
19168;DHT22;9716;53.114;18.040;2023-10-31T10:34:16;15.20;99.90
19168;DHT22;9716;53.114;18.040;2023-10-31T10:36:48;15.20;99.90
19168;DHT22;9716;53.114;18.040;2023-10-31T10:39:21;15.20;99.90
19168;DHT22;9716;53.114;18.040;2023-10-31T10:41:52;15.20;99.90
19168;DHT22;9716;53.114;18.040;2023-10-31T10:44:31;15.20;99.90
19168;DHT22;9716;53.114;18.040;2023-10-31T10:47:02;15.20;99.90
19168;DHT22;9716;53.114;18.040;2023-10-31T10:49:33;15.20;99.90
19168;DHT22;9716;53.114;18.040;2023-10-31T10:52:14;15.10;99.90
19168;DHT22;9716;53.114;18.040;2023-10-31T10:54:48;15.10;99.90
19168;DHT22;9716;53.114;18.040;2023-10-31T10:57:26;15.10;99.90
19168;DHT22;9716;53.114;18.040;2023-10-31T11:00:02;15.10;99.90
19168;DHT22;9716;53.114;18.040;2023-10-31T11:02:32;15.10;99.90
19168;DHT22;9716;53.114;18.040;2023-10-31T11:05:02;15.00;99.90
19168;DHT22;9716;53.114;18.040;2023-10-31T11:07:32;15.10;99.90
19168;DHT22;9716;53.114;18.040;2023-10-31T11:10:02;15.00;99.90
19168;DHT22;9716;53.114;18.040;2023-10-31T11:12:32;15.00;99.90
19168;DHT22;9716;53.114;18.040;2023-10-31T11:15:02;15.00;99.90
19168;DHT22;9716;53.114;18.040;2023-10-31T11:17:34;15.10;99.90
19168;DHT22;9716;53.114;18.040;2023-10-31T11:20:04;15.10;99.90
19168;DHT22;9716;53.114;18.040;2023-10-31T11:22:39;15.00;99.90
19168;DHT22;9716;53.114;18.040;2023-10-31T11:25:09;15.10;99.90
19168;DHT22;9716;53.114;18.040;2023-10-31T11:27:50;15.20;99.90
19168;DHT22;9716;53.114;18.040;2023-10-31T11:30:26;15.20;99.90
19168;DHT22;9716;53.114;18.040;2023-10-31T11:32:58;15.20;99.90
19168;DHT22;9716;53.114;18.040;2023-10-31T11:35:29;15.20;99.90
19168;DHT22;9716;53.114;18.040;2023-10-31T11:38:03;15.20;99.90
19168;DHT22;9716;53.114;18.040;2023-10-31T11:40:37;15.30;99.90
19168;DHT22;9716;53.114;18.040;2023-10-31T11:43:06;15.30;99.90
19168;DHT22;9716;53.114;18.040;2023-10-31T11:45:39;15.30;99.90
19168;DHT22;9716;53.114;18.040;2023-10-31T11:48:09;15.20;99.90
19168;DHT22;9716;53.114;18.040;2023-10-31T11:50:38;15.20;99.90
19168;DHT22;9716;53.114;18.040;2023-10-31T11:53:09;15.10;99.90
19168;DHT22;9716;53.114;18.040;2023-10-31T11:55:41;15.10;99.90
19168;DHT22;9716;53.114;18.040;2023-10-31T11:58:17;15.00;99.90
19168;DHT22;9716;53.114;18.040;2023-10-31T12:00:47;15.00;99.90
19168;DHT22;9716;53.114;18.040;2023-10-31T12:03:18;15.00;99.90
19168;DHT22;9716;53.114;18.040;2023-10-31T12:05:54;14.90;99.90
19168;DHT22;9716;53.114;18.040;2023-10-31T12:08:29;15.00;99.90
19168;DHT22;9716;53.114;18.040;2023-10-31T12:11:06;14.90;99.90
19168;DHT22;9716;53.114;18.040;2023-10-31T12:13:35;14.90;99.90
19168;DHT22;9716;53.114;18.040;2023-10-31T12:16:05;14.90;99.90
19168;DHT22;9716;53.114;18.040;2023-10-31T12:18:37;14.80;99.90
19168;DHT22;9716;53.114;18.040;2023-10-31T12:21:07;14.80;99.90
19168;DHT22;9716;53.114;18.040;2023-10-31T12:23:39;14.80;99.90
19168;DHT22;9716;53.114;18.040;2023-10-31T12:26:07;14.80;99.90
19168;DHT22;9716;53.114;18.040;2023-10-31T12:28:37;14.70;99.90
19168;DHT22;9716;53.114;18.040;2023-10-31T12:31:05;14.70;99.90
19168;DHT22;9716;53.114;18.040;2023-10-31T12:33:34;14.80;99.90
19168;DHT22;9716;53.114;18.040;2023-10-31T12:36:04;14.80;99.90
19168;DHT22;9716;53.114;18.040;2023-10-31T12:38:33;14.80;99.90
19168;DHT22;9716;53.114;18.040;2023-10-31T12:41:04;14.90;99.90
19168;DHT22;9716;53.114;18.040;2023-10-31T12:43:33;14.80;99.90
19168;DHT22;9716;53.114;18.040;2023-10-31T12:46:26;14.80;99.90
19168;DHT22;9716;53.114;18.040;2023-10-31T12:48:54;14.90;99.90
19168;DHT22;9716;53.114;18.040;2023-10-31T12:51:23;15.00;99.90
19168;DHT22;9716;53.114;18.040;2023-10-31T12:53:52;15.10;99.90
19168;DHT22;9716;53.114;18.040;2023-10-31T12:56:39;15.10;99.90
19168;DHT22;9716;53.114;18.040;2023-10-31T12:59:09;15.00;99.90
19168;DHT22;9716;53.114;18.040;2023-10-31T13:01:43;15.00;99.90
19168;DHT22;9716;53.114;18.040;2023-10-31T13:04:11;14.90;99.90
19168;DHT22;9716;53.114;18.040;2023-10-31T13:06:40;14.90;99.90
19168;DHT22;9716;53.114;18.040;2023-10-31T13:09:11;14.80;99.90
19168;DHT22;9716;53.114;18.040;2023-10-31T13:11:42;14.80;99.90
19168;DHT22;9716;53.114;18.040;2023-10-31T13:14:10;14.70;99.90
19168;DHT22;9716;53.114;18.040;2023-10-31T13:16:39;14.70;99.90
19168;DHT22;9716;53.114;18.040;2023-10-31T13:19:08;14.70;99.90
19168;DHT22;9716;53.114;18.040;2023-10-31T13:21:36;14.60;99.90
19168;DHT22;9716;53.114;18.040;2023-10-31T13:24:05;14.60;99.90
19168;DHT22;9716;53.114;18.040;2023-10-31T13:26:35;14.50;99.90
19168;DHT22;9716;53.114;18.040;2023-10-31T13:29:05;14.40;99.90
19168;DHT22;9716;53.114;18.040;2023-10-31T13:31:34;14.30;99.90
19168;DHT22;9716;53.114;18.040;2023-10-31T13:34:02;14.30;99.90
19168;DHT22;9716;53.114;18.040;2023-10-31T13:36:31;14.40;99.90
19168;DHT22;9716;53.114;18.040;2023-10-31T13:38:59;14.40;99.90
19168;DHT22;9716;53.114;18.040;2023-10-31T13:41:28;14.30;99.90
19168;DHT22;9716;53.114;18.040;2023-10-31T13:43:57;14.20;99.90
19168;DHT22;9716;53.114;18.040;2023-10-31T13:46:27;14.10;99.90
19168;DHT22;9716;53.114;18.040;2023-10-31T13:48:58;14.00;99.90
19168;DHT22;9716;53.114;18.040;2023-10-31T13:51:27;14.00;99.90
19168;DHT22;9716;53.114;18.040;2023-10-31T13:53:55;13.90;99.90
19168;DHT22;9716;53.114;18.040;2023-10-31T13:56:24;13.80;99.90
19168;DHT22;9716;53.114;18.040;2023-10-31T13:58:53;13.80;99.90
19168;DHT22;9716;53.114;18.040;2023-10-31T14:01:22;13.70;99.90
19168;DHT22;9716;53.114;18.040;2023-10-31T14:03:53;13.70;99.90
19168;DHT22;9716;53.114;18.040;2023-10-31T14:06:23;13.60;99.90
19168;DHT22;9716;53.114;18.040;2023-10-31T14:08:58;13.50;99.90
19168;DHT22;9716;53.114;18.040;2023-10-31T14:11:28;13.50;99.90
19168;DHT22;9716;53.114;18.040;2023-10-31T14:13:56;13.50;99.90
19168;DHT22;9716;53.114;18.040;2023-10-31T14:16:27;13.50;99.90
19168;DHT22;9716;53.114;18.040;2023-10-31T14:18:58;13.40;99.90
19168;DHT22;9716;53.114;18.040;2023-10-31T14:21:26;13.40;99.90
19168;DHT22;9716;53.114;18.040;2023-10-31T14:23:55;13.40;99.90
19168;DHT22;9716;53.114;18.040;2023-10-31T14:26:35;13.40;99.90
19168;DHT22;9716;53.114;18.040;2023-10-31T14:29:04;13.30;99.90
19168;DHT22;9716;53.114;18.040;2023-10-31T14:31:38;13.30;99.90
19168;DHT22;9716;53.114;18.040;2023-10-31T14:34:08;13.30;99.90
19168;DHT22;9716;53.114;18.040;2023-10-31T14:36:37;13.30;99.90
19168;DHT22;9716;53.114;18.040;2023-10-31T14:39:06;13.30;99.90
19168;DHT22;9716;53.114;18.040;2023-10-31T14:41:36;13.40;99.90
19168;DHT22;9716;53.114;18.040;2023-10-31T14:44:05;13.40;99.90
19168;DHT22;9716;53.114;18.040;2023-10-31T14:46:34;13.50;99.90
19168;DHT22;9716;53.114;18.040;2023-10-31T14:49:02;13.50;99.90
19168;DHT22;9716;53.114;18.040;2023-10-31T14:51:32;13.60;99.90
19168;DHT22;9716;53.114;18.040;2023-10-31T14:54:01;13.70;99.90
19168;DHT22;9716;53.114;18.040;2023-10-31T14:56:30;13.80;99.90
19168;DHT22;9716;53.114;18.040;2023-10-31T14:58:59;13.90;99.90
19168;DHT22;9716;53.114;18.040;2023-10-31T15:01:29;13.90;99.90
19168;DHT22;9716;53.114;18.040;2023-10-31T15:04:01;14.00;99.90
19168;DHT22;9716;53.114;18.040;2023-10-31T15:06:31;14.00;99.90
19168;DHT22;9716;53.114;18.040;2023-10-31T15:08:59;14.10;99.90
19168;DHT22;9716;53.114;18.040;2023-10-31T15:11:29;14.20;99.90
19168;DHT22;9716;53.114;18.040;2023-10-31T15:13:57;14.20;99.90
19168;DHT22;9716;53.114;18.040;2023-10-31T15:16:26;14.20;99.90
19168;DHT22;9716;53.114;18.040;2023-10-31T15:18:54;14.30;99.90
19168;DHT22;9716;53.114;18.040;2023-10-31T15:21:23;14.30;99.90
19168;DHT22;9716;53.114;18.040;2023-10-31T15:23:53;14.30;99.90
19168;DHT22;9716;53.114;18.040;2023-10-31T15:26:26;14.30;99.90
19168;DHT22;9716;53.114;18.040;2023-10-31T15:28:58;14.20;99.90
19168;DHT22;9716;53.114;18.040;2023-10-31T15:31:28;14.20;99.90
19168;DHT22;9716;53.114;18.040;2023-10-31T15:33:56;14.10;99.90
19168;DHT22;9716;53.114;18.040;2023-10-31T15:36:25;14.10;99.90
19168;DHT22;9716;53.114;18.040;2023-10-31T15:38:55;14.10;99.90
19168;DHT22;9716;53.114;18.040;2023-10-31T15:41:23;14.00;99.90
19168;DHT22;9716;53.114;18.040;2023-10-31T15:43:51;14.00;99.90